createdAt,value
2023-05-07T00:00:49.631Z,99786.97
2023-05-07T00:03:17.903Z,99780.63
2023-05-07T00:05:46.114Z,99785.91
2023-05-07T00:08:14.203Z,99784.97
2023-05-07T00:10:42.416Z,99780.22
2023-05-07T00:13:10.652Z,99782.56
2023-05-07T00:15:38.781Z,99776.66
2023-05-07T00:18:08.456Z,99778.19
2023-05-07T00:20:37.009Z,99784.06
2023-05-07T00:23:05.076Z,99778.56
2023-05-07T00:25:33.161Z,99779.34
2023-05-07T00:28:04.842Z,99780.25
2023-05-07T00:30:33.191Z,99785.31
2023-05-07T00:33:01.215Z,99774.53
2023-05-07T00:35:31.187Z,99775.38
2023-05-07T00:37:59.747Z,99771.13
2023-05-07T00:40:27.825Z,99780.13
2023-05-07T00:42:59.367Z,99770.34
2023-05-07T00:45:29.580Z,99778.94
2023-05-07T00:48:00.581Z,99772.72
2023-05-07T00:50:30.958Z,99778.06
2023-05-07T00:52:59.362Z,99772.97
2023-05-07T00:55:27.975Z,99783.41
2023-05-07T00:57:56.267Z,99782.69
2023-05-07T01:00:25.847Z,99785.31
2023-05-07T01:02:54.267Z,99774.81
2023-05-07T01:05:25.536Z,99777.84
2023-05-07T01:07:56.636Z,99787.22
2023-05-07T01:10:25.060Z,99785.53
2023-05-07T01:12:54.373Z,99779.94
2023-05-07T01:15:22.463Z,99779.91
2023-05-07T01:17:50.868Z,99783.00
2023-05-07T01:20:21.478Z,99783.41
2023-05-07T01:22:52.873Z,99783.88
2023-05-07T01:25:21.061Z,99776.94
2023-05-07T01:27:49.102Z,99780.13
2023-05-07T01:30:18.973Z,99775.84
2023-05-07T01:32:53.494Z,99777.78
2023-05-07T01:35:24.809Z,99779.31
2023-05-07T01:37:55.540Z,99776.00
2023-05-07T01:40:24.674Z,99781.34
2023-05-07T01:42:53.000Z,99780.44
2023-05-07T01:45:21.394Z,99770.34
2023-05-07T01:47:50.418Z,99767.25
2023-05-07T01:50:20.728Z,99768.75
2023-05-07T01:52:49.738Z,99767.53
2023-05-07T01:55:36.583Z,99772.25
2023-05-07T01:58:04.802Z,99776.53
2023-05-07T02:00:33.761Z,99775.59
2023-05-07T02:03:02.045Z,99780.81
2023-05-07T02:05:30.301Z,99783.06
2023-05-07T02:07:58.297Z,99775.81
2023-05-07T02:10:27.865Z,99768.47
2023-05-07T02:12:56.144Z,99774.78
2023-05-07T02:15:24.323Z,99765.09
2023-05-07T02:18:02.866Z,99770.47
2023-05-07T02:20:31.491Z,99760.22
2023-05-07T02:22:59.644Z,99767.94
2023-05-07T02:25:30.415Z,99772.03
2023-05-07T02:27:58.533Z,99769.50
2023-05-07T02:30:27.647Z,99768.28
2023-05-07T02:32:56.046Z,99768.19
2023-05-07T02:35:24.178Z,99760.94
2023-05-07T02:37:52.147Z,99761.94
2023-05-07T02:40:20.593Z,99765.00
2023-05-07T02:42:50.237Z,99766.03
2023-05-07T02:45:18.515Z,99761.66
2023-05-07T02:47:47.559Z,99762.38
2023-05-07T02:50:15.910Z,99758.16
2023-05-07T02:52:43.991Z,99757.38
2023-05-07T02:55:12.340Z,99752.03
2023-05-07T02:57:40.467Z,99757.53
2023-05-07T03:00:18.817Z,99752.47
2023-05-07T03:02:47.049Z,99747.84
2023-05-07T03:05:15.569Z,99742.53
2023-05-07T03:07:46.372Z,99747.69
2023-05-07T03:10:14.548Z,99738.00
2023-05-07T03:12:42.702Z,99745.09
2023-05-07T03:15:12.597Z,99756.34
2023-05-07T03:17:42.167Z,99745.03
2023-05-07T03:20:12.477Z,99748.88
2023-05-07T03:22:41.011Z,99746.53
2023-05-07T03:25:11.100Z,99744.09
2023-05-07T03:27:39.406Z,99754.28
2023-05-07T03:30:09.968Z,99752.72
2023-05-07T03:32:38.497Z,99756.25
2023-05-07T03:35:08.934Z,99753.13
2023-05-07T03:37:37.037Z,99752.16
2023-05-07T03:40:05.589Z,99756.09
2023-05-07T03:42:34.078Z,99756.16
2023-05-07T03:45:02.425Z,99754.78
2023-05-07T03:47:30.517Z,99753.31
2023-05-07T03:49:58.916Z,99754.97
2023-05-07T03:52:28.471Z,99756.59
2023-05-07T03:54:56.686Z,99766.03
2023-05-07T03:57:24.849Z,99769.41
2023-05-07T03:59:53.025Z,99772.56
2023-05-07T04:02:21.093Z,99769.53
2023-05-07T04:04:51.043Z,99771.97
2023-05-07T04:07:19.312Z,99769.84
2023-05-07T04:09:48.980Z,99773.50
2023-05-07T04:12:17.834Z,99771.72
2023-05-07T04:14:46.049Z,99763.63
2023-05-07T04:17:14.250Z,99764.50
2023-05-07T04:19:46.541Z,99758.00
2023-05-07T04:22:15.625Z,99752.63
2023-05-07T04:24:44.560Z,99770.25
2023-05-07T04:27:14.074Z,99775.09
2023-05-07T04:29:43.615Z,99764.72
2023-05-07T04:32:12.607Z,99764.81
2023-05-07T04:34:40.998Z,99774.28
2023-05-07T04:37:11.248Z,99763.50
2023-05-07T04:39:39.549Z,99772.63
2023-05-07T04:42:08.778Z,99768.81
2023-05-07T04:44:38.460Z,99766.50
2023-05-07T04:47:07.243Z,99772.06
2023-05-07T04:49:35.354Z,99767.78
2023-05-07T04:52:04.548Z,99772.16
2023-05-07T04:54:33.043Z,99766.28
2023-05-07T04:57:01.324Z,99773.38
2023-05-07T05:02:19.398Z,99778.94
2023-05-07T05:04:48.785Z,99787.56
2023-05-07T05:07:34.638Z,99788.81
2023-05-07T05:10:04.269Z,99780.28
2023-05-07T05:12:32.549Z,99784.59
2023-05-07T05:15:00.710Z,99783.47
2023-05-07T05:17:30.622Z,99792.09
2023-05-07T05:19:59.119Z,99783.16
2023-05-07T05:22:28.383Z,99796.44
2023-05-07T05:24:57.011Z,99794.94
2023-05-07T05:27:25.352Z,99792.31
2023-05-07T05:29:53.504Z,99796.59
2023-05-07T05:32:21.759Z,99795.41
2023-05-07T05:34:52.182Z,99793.88
2023-05-07T05:37:21.203Z,99798.22
2023-05-07T05:39:49.466Z,99799.03
2023-05-07T05:42:18.378Z,99802.94
2023-05-07T05:44:46.673Z,99813.53
2023-05-07T05:47:16.400Z,99810.75
2023-05-07T05:49:45.319Z,99811.19
2023-05-07T05:52:16.095Z,99809.22
2023-05-07T05:54:44.713Z,99818.63
2023-05-07T05:57:14.175Z,99815.47
2023-05-07T05:59:42.310Z,99813.13
2023-05-07T06:02:10.823Z,99817.84
2023-05-07T06:04:38.975Z,99816.66
2023-05-07T06:07:07.233Z,99819.34
2023-05-07T06:09:36.840Z,99813.88
2023-05-07T06:12:05.752Z,99821.69
2023-05-07T06:14:35.027Z,99829.50
2023-05-07T06:17:03.466Z,99817.75
2023-05-07T06:19:32.430Z,99824.44
2023-05-07T06:22:02.430Z,99822.09
2023-05-07T06:24:30.955Z,99812.72
2023-05-07T06:27:00.670Z,99813.50
2023-05-07T06:29:28.978Z,99814.50
2023-05-07T06:31:57.340Z,99814.84
2023-05-07T06:34:25.864Z,99812.31
2023-05-07T06:36:54.152Z,99818.22
2023-05-07T06:39:22.743Z,99812.34
2023-05-07T06:41:51.139Z,99808.41
2023-05-07T06:44:20.839Z,99812.34
2023-05-07T06:46:49.277Z,99809.97
2023-05-07T06:49:18.445Z,99808.81
2023-05-07T06:51:46.644Z,99819.78
2023-05-07T06:54:15.650Z,99813.13
2023-05-07T06:56:44.383Z,99813.09
2023-05-07T06:59:12.612Z,99818.53
2023-05-07T07:01:42.221Z,99817.75
2023-05-07T07:04:10.630Z,99816.63
2023-05-07T07:06:38.823Z,99812.34
2023-05-07T07:09:07.058Z,99809.56
2023-05-07T07:11:35.237Z,99814.25
2023-05-07T07:14:03.677Z,99806.75
2023-05-07T07:16:32.007Z,99819.28
2023-05-07T07:19:02.496Z,99816.56
2023-05-07T07:21:31.150Z,99815.00
2023-05-07T07:23:59.140Z,99815.41
2023-05-07T07:26:27.238Z,99814.94
2023-05-07T07:28:56.138Z,99820.00
2023-05-07T07:31:24.275Z,99827.44
2023-05-07T07:33:53.169Z,99824.66
2023-05-07T07:36:25.345Z,99822.00
2023-05-07T07:38:57.373Z,99832.22
2023-05-07T07:41:25.661Z,99830.66
2023-05-07T07:43:53.741Z,99826.69
2023-05-07T07:46:21.934Z,99824.69
2023-05-07T07:48:50.800Z,99830.53
2023-05-07T07:51:19.008Z,99832.47
2023-05-07T07:53:48.811Z,99818.66
2023-05-07T07:56:17.644Z,99822.09
2023-05-07T07:58:45.699Z,99820.69
2023-05-07T08:01:14.500Z,99826.50
2023-05-07T08:03:42.903Z,99834.72
2023-05-07T08:06:11.092Z,99830.72
2023-05-07T08:08:40.689Z,99829.44
2023-05-07T08:11:10.474Z,99828.94
2023-05-07T08:13:40.455Z,99817.59
2023-05-07T08:16:09.270Z,99820.22
2023-05-07T08:18:38.208Z,99825.06
2023-05-07T08:21:06.591Z,99818.47
2023-05-07T08:23:35.628Z,99816.66
2023-05-07T08:26:03.928Z,99814.84
2023-05-07T08:28:33.384Z,99822.19
2023-05-07T08:31:02.289Z,99806.38
2023-05-07T08:33:30.598Z,99812.59
2023-05-07T08:35:59.619Z,99801.41
2023-05-07T08:38:27.741Z,99815.84
2023-05-07T08:40:55.912Z,99806.69
2023-05-07T08:43:25.734Z,99790.06
2023-05-07T08:45:57.687Z,99804.53
2023-05-07T08:48:30.580Z,99802.09
2023-05-07T08:51:00.756Z,99794.84
2023-05-07T08:53:29.354Z,99796.09
2023-05-07T08:55:57.598Z,99792.78
2023-05-07T08:58:25.830Z,99785.59
2023-05-07T09:00:56.443Z,99789.72
2023-05-07T09:03:24.756Z,99792.25
2023-05-07T09:05:52.974Z,99791.22
2023-05-07T09:08:21.186Z,99784.13
2023-05-07T09:10:50.694Z,99786.66
2023-05-07T09:13:19.429Z,99775.94
2023-05-07T09:15:48.147Z,99785.41
2023-05-07T09:18:17.867Z,99776.81
2023-05-07T09:20:46.144Z,99776.22
2023-05-07T09:23:14.568Z,99767.59
2023-05-07T09:25:42.705Z,99770.81
2023-05-07T09:28:11.820Z,99766.19
2023-05-07T09:30:39.892Z,99771.41
2023-05-07T09:33:08.940Z,99770.25
2023-05-07T09:35:40.404Z,99766.03
2023-05-07T09:38:09.056Z,99765.19
2023-05-07T09:40:37.508Z,99762.34
2023-05-07T09:43:12.849Z,99760.13
2023-05-07T09:45:41.193Z,99753.56
2023-05-07T09:48:11.226Z,99764.09
2023-05-07T09:50:46.423Z,99748.06
2023-05-07T09:53:17.153Z,99750.38
2023-05-07T09:55:46.169Z,99751.44
2023-05-07T09:58:14.815Z,99747.50
2023-05-07T10:00:44.857Z,99737.53
2023-05-07T10:03:14.638Z,99739.25
2023-05-07T10:05:45.679Z,99743.59
2023-05-07T10:08:14.337Z,99739.06
2023-05-07T10:10:44.157Z,99742.34
2023-05-07T10:13:13.173Z,99729.50
2023-05-07T10:15:42.664Z,99735.31
2023-05-07T10:18:12.290Z,99731.22
2023-05-07T10:20:43.959Z,99720.84
2023-05-07T10:23:17.195Z,99721.94
2023-05-07T10:25:45.294Z,99717.69
2023-05-07T10:28:15.288Z,99707.91
2023-05-07T10:31:02.415Z,99707.88
2023-05-07T10:33:33.469Z,99706.50
2023-05-07T10:36:05.947Z,99714.34
2023-05-07T10:38:40.910Z,99706.91
2023-05-07T10:41:09.701Z,99710.84
2023-05-07T10:43:43.525Z,99698.16
2023-05-07T10:46:13.065Z,99693.81
2023-05-07T10:49:15.238Z,99683.81
2023-05-07T10:51:43.546Z,99682.00
2023-05-07T10:54:28.337Z,99683.03
2023-05-07T10:56:56.709Z,99688.69
2023-05-07T10:59:45.601Z,99679.38
2023-05-07T11:02:15.536Z,99674.84
2023-05-07T11:04:43.728Z,99674.25
2023-05-07T11:07:30.852Z,99671.63
2023-05-07T11:10:10.518Z,99676.88
2023-05-07T11:13:05.826Z,99671.81
2023-05-07T11:15:43.181Z,99669.81
2023-05-07T11:18:12.697Z,99666.53
2023-05-07T11:21:03.673Z,99665.13
2023-05-07T11:24:12.851Z,99671.13
2023-05-07T11:26:48.453Z,99660.22
2023-05-07T11:29:21.588Z,99659.53
2023-05-07T11:31:54.372Z,99652.81
2023-05-07T11:34:29.140Z,99650.72
2023-05-07T11:36:58.938Z,99647.69
2023-05-07T11:39:37.390Z,99655.16
2023-05-07T11:42:07.127Z,99664.72
2023-05-07T11:44:46.972Z,99655.03
2023-05-07T11:47:20.427Z,99654.25
2023-05-07T11:49:50.172Z,99657.78
2023-05-07T11:52:19.666Z,99658.03
2023-05-07T11:54:52.827Z,99650.53
2023-05-07T11:57:22.651Z,99654.50
2023-05-07T11:59:54.859Z,99642.53
2023-05-07T12:02:26.342Z,99642.00
2023-05-07T12:04:54.942Z,99651.03
2023-05-07T12:07:24.270Z,99639.44
2023-05-07T12:09:53.406Z,99642.81
2023-05-07T12:12:23.096Z,99643.66
2023-05-07T12:14:51.914Z,99640.38
2023-05-07T12:17:20.474Z,99634.75
2023-05-07T12:19:49.744Z,99636.31
2023-05-07T12:22:18.098Z,99620.22
2023-05-07T12:24:48.402Z,99630.25
2023-05-07T12:27:17.524Z,99633.19
2023-05-07T12:29:49.215Z,99627.66
2023-05-07T12:32:19.256Z,99615.16
2023-05-07T12:34:48.311Z,99608.06
2023-05-07T12:37:16.618Z,99601.28
2023-05-07T12:39:49.810Z,99601.34
2023-05-07T12:42:19.432Z,99604.53
2023-05-07T12:44:49.430Z,99604.06
2023-05-07T12:47:18.093Z,99608.84
2023-05-07T12:49:47.902Z,99599.88
2023-05-07T12:52:16.298Z,99601.00
2023-05-07T12:54:44.502Z,99597.28
2023-05-07T12:57:13.733Z,99590.34
2023-05-07T12:59:43.321Z,99592.59
2023-05-07T13:02:13.239Z,99590.00
2023-05-07T13:04:41.499Z,99589.38
2023-05-07T13:07:10.341Z,99591.13
2023-05-07T13:09:39.356Z,99582.16
2023-05-07T13:12:08.133Z,99580.81
2023-05-07T13:14:36.473Z,99580.34
2023-05-07T13:17:04.647Z,99577.50
2023-05-07T13:19:34.694Z,99580.16
2023-05-07T13:22:03.293Z,99565.50
2023-05-07T13:24:31.729Z,99576.09
2023-05-07T13:27:00.202Z,99578.56
2023-05-07T13:29:31.190Z,99576.34
2023-05-07T13:31:59.723Z,99567.97
2023-05-07T13:34:28.281Z,99566.63
2023-05-07T13:36:59.179Z,99577.13
2023-05-07T13:39:27.665Z,99558.94
2023-05-07T13:41:56.263Z,99569.09
2023-05-07T13:44:26.625Z,99569.34
2023-05-07T13:46:55.329Z,99560.97
2023-05-07T13:49:23.485Z,99559.31
2023-05-07T13:51:51.878Z,99556.09
2023-05-07T13:54:21.888Z,99554.28
2023-05-07T13:56:50.072Z,99551.69
2023-05-07T13:59:18.266Z,99550.75
2023-05-07T14:01:46.574Z,99550.16
2023-05-07T14:04:15.013Z,99552.31
2023-05-07T14:06:43.300Z,99553.09
2023-05-07T14:09:14.350Z,99545.78
2023-05-07T14:11:45.085Z,99558.75
2023-05-07T14:14:14.406Z,99557.66
2023-05-07T14:16:42.674Z,99550.34
2023-05-07T14:19:11.914Z,99556.09
2023-05-07T14:21:40.269Z,99561.81
2023-05-07T14:24:09.794Z,99554.66
2023-05-07T14:26:38.090Z,99554.44
2023-05-07T14:29:07.698Z,99551.69
2023-05-07T14:31:36.344Z,99549.44
2023-05-07T14:34:04.568Z,99552.91
2023-05-07T14:36:32.948Z,99557.16
2023-05-07T14:39:01.391Z,99546.56
2023-05-07T14:41:29.915Z,99549.78
2023-05-07T14:44:00.117Z,99558.56
2023-05-07T14:46:29.852Z,99553.91
2023-05-07T14:48:59.004Z,99549.81
2023-05-07T14:51:29.354Z,99555.03
2023-05-07T14:53:57.665Z,99556.63
2023-05-07T14:56:27.068Z,99552.84
2023-05-07T14:58:55.632Z,99557.19
2023-05-07T15:01:24.004Z,99557.50
2023-05-07T15:03:53.738Z,99552.66
2023-05-07T15:06:22.121Z,99550.84
2023-05-07T15:08:51.252Z,99553.63
2023-05-07T15:11:19.561Z,99557.38
2023-05-07T15:13:47.892Z,99552.16
2023-05-07T15:16:16.160Z,99552.06
2023-05-07T15:18:45.550Z,99552.41
2023-05-07T15:21:15.761Z,99555.91
2023-05-07T15:23:45.492Z,99553.59
2023-05-07T15:26:13.596Z,99546.59
2023-05-07T15:28:42.234Z,99546.63
2023-05-07T15:31:10.429Z,99543.78
2023-05-07T15:33:38.634Z,99552.22
2023-05-07T15:36:07.682Z,99549.59
2023-05-07T15:38:37.518Z,99540.28
2023-05-07T15:41:05.614Z,99542.69
2023-05-07T15:43:33.888Z,99537.06
2023-05-07T15:46:02.389Z,99542.00
2023-05-07T15:48:30.848Z,99546.91
2023-05-07T15:50:59.258Z,99536.72
2023-05-07T15:53:27.407Z,99548.44
2023-05-07T15:55:57.257Z,99543.97
2023-05-07T15:58:25.369Z,99536.97
2023-05-07T16:00:54.278Z,99539.31
2023-05-07T16:03:23.292Z,99536.34
2023-05-07T16:05:52.467Z,99534.59
2023-05-07T16:08:24.424Z,99534.06
2023-05-07T16:10:52.749Z,99535.81
2023-05-07T16:13:24.973Z,99540.22
2023-05-07T16:15:57.893Z,99550.78
2023-05-07T16:18:26.225Z,99548.94
2023-05-07T16:20:55.309Z,99548.41
2023-05-07T16:23:23.405Z,99538.44
2023-05-07T16:25:51.595Z,99537.31
2023-05-07T16:28:21.899Z,99534.97
2023-05-07T16:30:52.232Z,99532.97
2023-05-07T16:33:20.612Z,99537.13
2023-05-07T16:35:53.342Z,99542.00
2023-05-07T16:38:21.760Z,99530.34
2023-05-07T16:40:50.206Z,99540.25
2023-05-07T16:43:18.421Z,99541.03
2023-05-07T16:45:48.596Z,99540.28
2023-05-07T16:48:16.915Z,99543.63
2023-05-07T16:50:46.162Z,99547.91
2023-05-07T16:53:14.884Z,99555.28
2023-05-07T16:55:43.217Z,99553.81
2023-05-07T16:58:12.060Z,99553.03
2023-05-07T17:00:50.458Z,99548.50
2023-05-07T17:03:21.070Z,99546.78
2023-05-07T17:05:49.623Z,99548.47
2023-05-07T17:08:17.933Z,99545.84
2023-05-07T17:10:46.354Z,99549.72
2023-05-07T17:13:14.612Z,99553.16
2023-05-07T17:15:43.774Z,99552.75
2023-05-07T17:18:12.064Z,99550.09
2023-05-07T17:20:41.788Z,99560.78
2023-05-07T17:23:10.054Z,99561.72
2023-05-07T17:25:38.195Z,99561.06
2023-05-07T17:28:08.521Z,99559.97
2023-05-07T17:30:37.096Z,99556.28
2023-05-07T17:33:19.298Z,99555.09
2023-05-07T17:35:50.180Z,99559.06
2023-05-07T17:38:18.540Z,99554.41
2023-05-07T17:40:46.791Z,99564.81
2023-05-07T17:43:14.885Z,99568.47
2023-05-07T17:45:43.349Z,99571.31
2023-05-07T17:48:11.719Z,99569.91
2023-05-07T17:50:39.926Z,99566.19
2023-05-07T17:53:10.096Z,99578.13
2023-05-07T17:55:42.736Z,99574.97
2023-05-07T17:58:11.590Z,99580.94
2023-05-07T18:00:40.222Z,99587.25
2023-05-07T18:03:08.530Z,99586.88
2023-05-07T18:05:37.941Z,99592.44
2023-05-07T18:08:06.494Z,99578.75
2023-05-07T18:10:36.310Z,99587.53
2023-05-07T18:13:04.467Z,99583.69
2023-05-07T18:15:32.588Z,99592.03
2023-05-07T18:18:01.218Z,99593.59
2023-05-07T18:20:29.985Z,99588.16
2023-05-07T18:22:58.775Z,99596.47
2023-05-07T18:25:26.953Z,99592.25
2023-05-07T18:27:56.823Z,99599.41
2023-05-07T18:30:25.046Z,99607.66
2023-05-07T18:32:59.035Z,99599.50
2023-05-07T18:35:27.484Z,99607.81
2023-05-07T18:37:55.723Z,99615.63
2023-05-07T18:40:23.987Z,99618.41
2023-05-07T18:42:52.279Z,99623.63
2023-05-07T18:45:22.210Z,99626.78
2023-05-07T18:47:50.482Z,99628.34
2023-05-07T18:50:19.072Z,99628.41
2023-05-07T18:52:47.435Z,99634.28
2023-05-07T18:55:17.067Z,99638.66
2023-05-07T18:57:45.953Z,99635.56
2023-05-07T19:00:17.328Z,99639.47
2023-05-07T19:02:47.062Z,99637.91
2023-05-07T19:05:15.788Z,99636.34
2023-05-07T19:07:44.022Z,99643.03
2023-05-07T19:10:12.750Z,99638.75
2023-05-07T19:12:41.253Z,99634.03
2023-05-07T19:15:10.836Z,99645.81
2023-05-07T19:17:39.580Z,99651.72
2023-05-07T19:20:12.274Z,99644.66
2023-05-07T19:22:40.684Z,99652.50
2023-05-07T19:25:09.996Z,99668.94
2023-05-07T19:27:38.419Z,99661.91
2023-05-07T19:30:08.062Z,99659.59
2023-05-07T19:32:36.315Z,99664.72
2023-05-07T19:35:04.936Z,99665.09
2023-05-07T19:37:34.552Z,99663.16
2023-05-07T19:40:05.325Z,99668.25
2023-05-07T19:42:33.678Z,99662.78
2023-05-07T19:45:04.675Z,99662.03
2023-05-07T19:47:34.335Z,99665.94
2023-05-07T19:50:02.800Z,99667.50
2023-05-07T19:52:31.612Z,99669.06
2023-05-07T19:55:03.354Z,99672.97
2023-05-07T19:57:36.351Z,99667.06
2023-05-07T20:00:06.991Z,99666.66
2023-05-07T20:02:36.123Z,99668.59
2023-05-07T20:05:04.815Z,99666.25
2023-05-07T20:07:34.072Z,99667.03
2023-05-07T20:10:04.139Z,99663.50
2023-05-07T20:12:34.070Z,99669.72
2023-05-07T20:15:03.140Z,99663.84
2023-05-07T20:17:32.005Z,99672.06
2023-05-07T20:20:04.030Z,99681.44
2023-05-07T20:22:33.462Z,99677.50
2023-05-07T20:25:05.796Z,99682.56
2023-05-07T20:27:36.289Z,99677.50
2023-05-07T20:30:04.785Z,99684.53
2023-05-07T20:32:33.119Z,99685.66
2023-05-07T20:35:01.506Z,99695.41
2023-05-07T20:37:30.191Z,99693.81
2023-05-07T20:39:58.744Z,99699.22
2023-05-07T20:42:29.389Z,99700.00
2023-05-07T20:44:57.777Z,99705.34
2023-05-07T20:47:25.909Z,99695.19
2023-05-07T20:49:55.888Z,99713.94
2023-05-07T20:52:23.964Z,99717.41
2023-05-07T20:54:52.390Z,99718.88
2023-05-07T20:57:21.133Z,99711.88
2023-05-07T20:59:51.036Z,99710.31
2023-05-07T21:02:19.305Z,99723.47
2023-05-07T21:04:47.793Z,99721.88
2023-05-07T21:07:16.161Z,99722.63
2023-05-07T21:09:44.349Z,99735.44
2023-05-07T21:12:12.931Z,99731.13
2023-05-07T21:14:41.206Z,99736.50
2023-05-07T21:17:11.157Z,99737.56
2023-05-07T21:19:43.278Z,99744.81
2023-05-07T21:22:12.138Z,99740.94
2023-05-07T21:24:41.465Z,99745.97
2023-05-07T21:27:09.822Z,99742.91
2023-05-07T21:29:37.959Z,99752.94
2023-05-07T21:32:06.804Z,99759.84
2023-05-07T21:34:36.754Z,99763.31
2023-05-07T21:37:04.795Z,99761.00
2023-05-07T21:39:32.975Z,99767.16
2023-05-07T21:42:01.127Z,99771.44
2023-05-07T21:44:30.224Z,99769.03
2023-05-07T21:46:58.608Z,99779.81
2023-05-07T21:49:26.896Z,99787.19
2023-05-07T21:51:56.365Z,99784.78
2023-05-07T21:54:24.551Z,99785.66
2023-05-07T21:56:52.771Z,99799.38
2023-05-07T21:59:20.885Z,99798.69
2023-05-07T22:01:49.049Z,99798.31
2023-05-07T22:04:17.328Z,99798.28
2023-05-07T22:06:45.488Z,99792.69
2023-05-07T22:09:15.031Z,99796.13
2023-05-07T22:11:43.213Z,99800.31
2023-05-07T22:14:11.369Z,99803.78
2023-05-07T22:16:41.085Z,99796.72
2023-05-07T22:19:09.339Z,99801.75
2023-05-07T22:21:37.870Z,99803.56
2023-05-07T22:24:08.092Z,99797.38
2023-05-07T22:26:37.736Z,99804.75
2023-05-07T22:29:05.857Z,99802.34
2023-05-07T22:31:34.037Z,99789.13
2023-05-07T22:34:02.789Z,99792.03
2023-05-07T22:36:31.110Z,99792.00
2023-05-07T22:38:59.884Z,99800.97
2023-05-07T22:41:27.939Z,99799.25
2023-05-07T22:43:58.995Z,99808.19
2023-05-07T22:46:27.259Z,99801.38
2023-05-07T22:48:55.472Z,99795.38
2023-05-07T22:51:23.805Z,99800.34
2023-05-07T22:53:52.010Z,99793.34
2023-05-07T22:56:20.029Z,99798.63
2023-05-07T22:58:49.541Z,99798.13
2023-05-07T23:01:19.776Z,99798.47
2023-05-07T23:03:48.048Z,99796.13
2023-05-07T23:06:16.287Z,99790.59
2023-05-07T23:08:44.466Z,99787.38
2023-05-07T23:11:12.618Z,99790.88
2023-05-07T23:13:40.788Z,99792.75
2023-05-07T23:16:08.862Z,99786.84
2023-05-07T23:18:39.359Z,99793.34
2023-05-07T23:21:07.875Z,99790.56
2023-05-07T23:23:36.369Z,99788.59
2023-05-07T23:26:04.501Z,99786.28
2023-05-07T23:28:32.608Z,99785.66
2023-05-07T23:31:00.748Z,99785.22
2023-05-07T23:33:28.889Z,99782.00
2023-05-07T23:36:02.265Z,99781.16
2023-05-07T23:38:30.517Z,99781.50
2023-05-07T23:40:58.795Z,99775.72
2023-05-07T23:43:26.952Z,99768.78
2023-05-07T23:45:55.172Z,99776.13
2023-05-07T23:48:23.735Z,99773.25
2023-05-07T23:50:51.849Z,99770.81
2023-05-07T23:53:21.734Z,99765.28
2023-05-07T23:55:49.950Z,99763.28
2023-05-07T23:58:18.211Z,99766.88
